createdAt,value
2023-08-20T00:00:08.564Z,101185.19
2023-08-20T00:02:38.176Z,101191.19
2023-08-20T00:05:05.477Z,101179.50
2023-08-20T00:07:33.148Z,101187.94
2023-08-20T00:10:00.294Z,101175.44
2023-08-20T00:12:27.210Z,101191.25
2023-08-20T00:15:04.076Z,101179.84
2023-08-20T00:17:38.443Z,101190.19
2023-08-20T00:20:09.870Z,101183.41
2023-08-20T00:22:37.387Z,101185.84
2023-08-20T00:25:04.587Z,101184.22
2023-08-20T00:27:31.431Z,101185.03
2023-08-20T00:30:07.214Z,101183.72
2023-08-20T00:32:35.276Z,101182.91
2023-08-20T00:35:05.956Z,101189.97
2023-08-20T00:37:33.139Z,101184.00
2023-08-20T00:40:00.614Z,101187.00
2023-08-20T00:42:27.515Z,101186.75
2023-08-20T00:44:57.391Z,101192.25
2023-08-20T00:47:24.264Z,101184.38
2023-08-20T00:49:52.047Z,101184.44
2023-08-20T00:52:19.103Z,101187.97
2023-08-20T00:54:46.899Z,101187.97
2023-08-20T00:57:15.447Z,101190.44
2023-08-20T00:59:46.628Z,101192.66
2023-08-20T01:02:17.189Z,101191.59
2023-08-20T01:04:44.038Z,101192.97
2023-08-20T01:07:25.497Z,101192.47
2023-08-20T01:10:05.310Z,101201.69
2023-08-20T01:12:32.991Z,101209.03
2023-08-20T01:14:59.819Z,101200.88
2023-08-20T01:17:26.634Z,101209.59
2023-08-20T01:19:53.620Z,101214.19
2023-08-20T01:22:32.451Z,101206.06
2023-08-20T01:25:19.342Z,101203.34
2023-08-20T01:27:49.209Z,101213.13
2023-08-20T01:30:19.679Z,101216.13
2023-08-20T01:32:47.452Z,101218.31
2023-08-20T01:35:21.061Z,101215.84
2023-08-20T01:37:47.809Z,101213.69
2023-08-20T01:40:23.887Z,101210.97
2023-08-20T01:42:50.679Z,101212.06
2023-08-20T01:45:17.688Z,101218.34
2023-08-20T01:47:46.935Z,101215.38
2023-08-20T01:50:14.650Z,101216.19
2023-08-20T01:52:46.939Z,101217.59
2023-08-20T01:55:13.742Z,101211.63
2023-08-20T01:57:40.533Z,101217.63
2023-08-20T02:00:13.903Z,101212.25
2023-08-20T02:02:40.822Z,101214.97
2023-08-20T02:05:08.069Z,101212.78
2023-08-20T02:07:35.095Z,101212.00
2023-08-20T02:10:02.098Z,101209.59
2023-08-20T02:12:28.874Z,101208.22
2023-08-20T02:15:00.983Z,101208.22
2023-08-20T02:17:27.772Z,101204.19
2023-08-20T02:19:54.467Z,101202.03
2023-08-20T02:22:21.215Z,101203.94
2023-08-20T02:24:48.137Z,101196.63
2023-08-20T02:27:14.984Z,101204.22
2023-08-20T02:29:41.872Z,101201.22
2023-08-20T02:32:08.632Z,101196.63
2023-08-20T02:34:35.362Z,101199.34
2023-08-20T02:37:02.120Z,101196.41
2023-08-20T02:39:34.772Z,101195.34
2023-08-20T02:42:05.315Z,101205.94
2023-08-20T02:44:32.120Z,101202.97
2023-08-20T02:46:58.975Z,101198.88
2023-08-20T02:49:25.764Z,101202.19
2023-08-20T02:51:52.534Z,101202.72
2023-08-20T02:54:19.260Z,101196.78
2023-08-20T02:56:45.990Z,101193.28
2023-08-20T02:59:12.736Z,101203.25
2023-08-20T03:01:39.477Z,101210.03
2023-08-20T03:04:06.652Z,101215.19
2023-08-20T03:06:33.354Z,101210.84
2023-08-20T03:09:05.924Z,101204.38
2023-08-20T03:11:32.732Z,101203.31
2023-08-20T03:14:07.192Z,101195.47
2023-08-20T03:16:37.434Z,101204.22
2023-08-20T03:19:05.201Z,101202.59
2023-08-20T03:21:33.676Z,101197.97
2023-08-20T03:24:00.426Z,101195.53
2023-08-20T03:26:27.243Z,101199.88
2023-08-20T03:28:54.004Z,101207.50
2023-08-20T03:31:20.978Z,101196.03
2023-08-20T03:33:47.786Z,101203.09
2023-08-20T03:36:14.611Z,101205.53
2023-08-20T03:38:41.455Z,101201.19
2023-08-20T03:41:08.214Z,101213.94
2023-08-20T03:43:34.993Z,101214.50
2023-08-20T03:46:09.841Z,101212.38
2023-08-20T03:48:36.657Z,101209.94
2023-08-20T03:51:03.452Z,101207.84
2023-08-20T03:53:30.394Z,101211.94
2023-08-20T03:55:57.152Z,101217.41
2023-08-20T03:58:23.882Z,101216.59
2023-08-20T04:00:50.597Z,101212.53
2023-08-20T04:03:17.358Z,101214.75
2023-08-20T04:05:44.089Z,101209.88
2023-08-20T04:08:12.373Z,101208.25
2023-08-20T04:10:45.508Z,101212.03
2023-08-20T04:13:12.350Z,101213.38
2023-08-20T04:15:39.188Z,101209.03
2023-08-20T04:18:12.929Z,101217.97
2023-08-20T04:20:39.799Z,101219.34
2023-08-20T04:23:06.754Z,101222.84
2023-08-20T04:25:37.382Z,101219.63
2023-08-20T04:28:04.337Z,101218.00
2023-08-20T04:30:31.282Z,101220.16
2023-08-20T04:32:58.863Z,101229.09
2023-08-20T04:35:25.649Z,101224.19
2023-08-20T04:37:52.398Z,101219.06
2023-08-20T04:40:19.326Z,101215.25
2023-08-20T04:42:46.167Z,101215.81
2023-08-20T04:45:13.173Z,101218.28
2023-08-20T04:47:41.653Z,101222.59
2023-08-20T04:50:08.845Z,101219.06
2023-08-20T04:52:35.888Z,101227.22
2023-08-20T04:55:06.658Z,101215.28
2023-08-20T04:57:34.295Z,101228.50
2023-08-20T05:00:01.481Z,101227.19
2023-08-20T05:02:33.028Z,101232.06
2023-08-20T05:05:01.158Z,101237.72
2023-08-20T05:07:28.025Z,101238.00
2023-08-20T05:09:57.037Z,101232.59
2023-08-20T05:12:23.836Z,101229.06
2023-08-20T05:14:50.610Z,101238.00
2023-08-20T05:17:20.485Z,101236.13
2023-08-20T05:19:48.260Z,101240.16
2023-08-20T05:22:15.066Z,101246.09
2023-08-20T05:24:41.827Z,101246.91
2023-08-20T05:27:15.448Z,101245.00
2023-08-20T05:29:52.047Z,101251.78
2023-08-20T05:32:19.346Z,101255.88
2023-08-20T05:34:46.093Z,101255.63
2023-08-20T05:37:12.833Z,101262.38
2023-08-20T05:39:46.778Z,101266.69
2023-08-20T05:42:13.828Z,101270.44
2023-08-20T05:44:43.379Z,101268.03
2023-08-20T05:47:11.057Z,101269.09
2023-08-20T05:49:47.184Z,101278.59
2023-08-20T05:52:17.597Z,101281.81
2023-08-20T05:54:52.352Z,101282.59
2023-08-20T05:57:19.664Z,101273.94
2023-08-20T05:59:48.044Z,101281.28
2023-08-20T06:02:20.644Z,101284.44
2023-08-20T06:04:52.154Z,101283.06
2023-08-20T06:07:18.962Z,101275.75
2023-08-20T06:09:45.741Z,101283.22
2023-08-20T06:12:22.512Z,101293.25
2023-08-20T06:14:49.372Z,101298.94
2023-08-20T06:17:16.479Z,101293.06
2023-08-20T06:19:51.656Z,101295.16
2023-08-20T06:22:18.392Z,101299.50
2023-08-20T06:24:45.113Z,101299.06
2023-08-20T06:27:11.877Z,101303.38
2023-08-20T06:29:38.611Z,101303.38
2023-08-20T06:32:05.776Z,101305.00
2023-08-20T06:34:35.346Z,101310.19
2023-08-20T06:37:06.187Z,101311.63
2023-08-20T06:39:33.035Z,101308.84
2023-08-20T06:41:59.876Z,101308.03
2023-08-20T06:44:26.626Z,101298.38
2023-08-20T06:46:58.289Z,101296.59
2023-08-20T06:49:25.201Z,101314.06
2023-08-20T06:51:51.938Z,101313.94
2023-08-20T06:54:21.713Z,101312.34
2023-08-20T06:56:52.132Z,101313.78
2023-08-20T06:59:20.778Z,101317.16
2023-08-20T07:01:47.528Z,101319.41
2023-08-20T07:04:21.559Z,101317.69
2023-08-20T07:06:48.280Z,101321.50
2023-08-20T07:09:17.676Z,101316.97
2023-08-20T07:11:50.231Z,101313.09
2023-08-20T07:14:17.014Z,101329.78
2023-08-20T07:16:51.788Z,101317.56
2023-08-20T07:19:22.556Z,101314.75
2023-08-20T07:21:54.987Z,101320.41
2023-08-20T07:24:22.434Z,101325.44
2023-08-20T07:26:49.286Z,101321.22
2023-08-20T07:29:26.627Z,101321.59
2023-08-20T07:31:53.618Z,101324.63
2023-08-20T07:34:20.448Z,101326.59
2023-08-20T07:36:53.751Z,101331.50
2023-08-20T07:39:21.043Z,101334.84
2023-08-20T07:41:47.830Z,101338.63
2023-08-20T07:44:14.611Z,101332.41
2023-08-20T07:46:41.345Z,101336.31
2023-08-20T07:49:13.501Z,101337.22
2023-08-20T07:51:40.264Z,101344.25
2023-08-20T07:54:06.979Z,101340.97
2023-08-20T07:56:41.357Z,101350.88
2023-08-20T07:59:11.672Z,101341.59
2023-08-20T08:01:38.664Z,101352.16
2023-08-20T08:04:05.587Z,101347.75
2023-08-20T08:06:34.964Z,101348.84
2023-08-20T08:09:23.271Z,101349.00
2023-08-20T08:11:50.309Z,101352.34
2023-08-20T08:14:17.246Z,101343.25
2023-08-20T08:16:44.329Z,101343.25
2023-08-20T08:19:14.483Z,101353.16
2023-08-20T08:21:43.020Z,101353.38
2023-08-20T08:24:10.040Z,101353.22
2023-08-20T08:26:42.679Z,101340.06
2023-08-20T08:29:13.752Z,101348.78
2023-08-20T08:31:40.385Z,101336.00
2023-08-20T08:34:09.638Z,101343.69
2023-08-20T08:36:38.154Z,101335.72
2023-08-20T08:39:05.774Z,101348.19
2023-08-20T08:41:36.665Z,101336.22
2023-08-20T08:44:08.418Z,101343.97
2023-08-20T08:46:36.714Z,101335.34
2023-08-20T08:49:04.189Z,101348.91
2023-08-20T08:51:32.942Z,101346.78
2023-08-20T08:54:03.200Z,101341.78
2023-08-20T08:56:29.979Z,101341.53
2023-08-20T08:59:00.776Z,101341.84
2023-08-20T09:01:27.615Z,101348.03
2023-08-20T09:03:57.873Z,101341.50
2023-08-20T09:06:24.675Z,101342.63
2023-08-20T09:09:04.575Z,101333.22
2023-08-20T09:11:44.131Z,101332.59
2023-08-20T09:14:28.679Z,101333.97
2023-08-20T09:16:57.026Z,101340.59
2023-08-20T09:19:23.960Z,101333.34
2023-08-20T09:21:50.733Z,101331.66
2023-08-20T09:24:17.461Z,101331.91
2023-08-20T09:26:47.195Z,101327.63
2023-08-20T09:29:14.129Z,101329.72
2023-08-20T09:31:41.203Z,101324.41
2023-08-20T09:34:22.260Z,101324.75
2023-08-20T09:36:49.933Z,101316.38
2023-08-20T09:39:19.049Z,101316.88
2023-08-20T09:41:49.158Z,101316.25
2023-08-20T09:44:24.146Z,101306.97
2023-08-20T09:46:52.564Z,101308.00
2023-08-20T09:49:24.053Z,101311.91
2023-08-20T09:51:55.107Z,101309.25
2023-08-20T09:54:25.360Z,101304.41
2023-08-20T09:57:03.849Z,101310.53
2023-08-20T09:59:31.112Z,101310.38
2023-08-20T10:01:58.455Z,101299.06
2023-08-20T10:04:27.641Z,101294.91
2023-08-20T10:06:54.891Z,101297.03
2023-08-20T10:09:22.647Z,101294.41
2023-08-20T10:11:49.810Z,101290.72
2023-08-20T10:14:22.802Z,101290.41
2023-08-20T10:16:49.696Z,101289.59
2023-08-20T10:19:17.713Z,101287.50
2023-08-20T10:21:47.582Z,101290.41
2023-08-20T10:24:24.950Z,101287.13
2023-08-20T10:27:11.720Z,101288.41
2023-08-20T10:29:42.318Z,101282.41
2023-08-20T10:32:21.643Z,101270.59
2023-08-20T10:34:52.726Z,101277.50
2023-08-20T10:37:29.166Z,101288.72
2023-08-20T10:39:57.411Z,101272.63
2023-08-20T10:42:27.977Z,101268.31
2023-08-20T10:44:59.380Z,101276.34
2023-08-20T10:47:49.231Z,101268.94
2023-08-20T10:50:25.676Z,101275.72
2023-08-20T10:52:56.910Z,101269.94
2023-08-20T10:55:28.159Z,101264.47
2023-08-20T10:57:58.943Z,101274.13
2023-08-20T11:00:28.603Z,101275.91
2023-08-20T11:02:57.105Z,101263.66
2023-08-20T11:05:24.720Z,101265.59
2023-08-20T11:07:54.355Z,101261.09
2023-08-20T11:10:22.693Z,101269.41
2023-08-20T11:12:49.515Z,101272.31
2023-08-20T11:15:16.300Z,101274.25
2023-08-20T11:17:44.684Z,101264.59
2023-08-20T11:20:15.214Z,101258.28
2023-08-20T11:22:42.326Z,101262.81
2023-08-20T11:25:13.232Z,101252.34
2023-08-20T11:27:43.876Z,101257.31
2023-08-20T11:30:11.660Z,101257.47
2023-08-20T11:32:39.979Z,101255.72
2023-08-20T11:35:14.256Z,101254.13
2023-08-20T11:37:42.002Z,101256.69
2023-08-20T11:40:09.602Z,101257.47
2023-08-20T11:42:36.718Z,101250.69
2023-08-20T11:45:03.755Z,101260.34
2023-08-20T11:47:30.646Z,101260.06
2023-08-20T11:50:05.572Z,101256.53
2023-08-20T11:52:36.991Z,101265.06
2023-08-20T11:55:06.966Z,101250.72
2023-08-20T11:57:34.870Z,101254.63
2023-08-20T12:00:06.825Z,101261.38
2023-08-20T12:02:40.727Z,101249.94
2023-08-20T12:05:08.204Z,101254.25
2023-08-20T12:07:35.397Z,101248.31
2023-08-20T12:10:25.819Z,101252.78
2023-08-20T12:12:56.387Z,101247.50
2023-08-20T12:15:24.005Z,101245.88
2023-08-20T12:18:04.954Z,101232.72
2023-08-20T12:20:34.447Z,101230.44
2023-08-20T12:23:04.207Z,101234.75
2023-08-20T12:25:32.858Z,101233.81
2023-08-20T12:27:59.627Z,101233.50
2023-08-20T12:30:26.426Z,101232.69
2023-08-20T12:32:53.220Z,101230.59
2023-08-20T12:35:23.003Z,101218.69
2023-08-20T12:37:50.438Z,101221.59
2023-08-20T12:40:32.420Z,101215.31
2023-08-20T12:43:00.966Z,101210.47
2023-08-20T12:45:27.766Z,101213.38
2023-08-20T12:47:54.498Z,101221.06
2023-08-20T12:50:24.464Z,101219.00
2023-08-20T12:52:52.434Z,101207.56
2023-08-20T12:55:20.027Z,101206.78
2023-08-20T12:58:01.240Z,101202.75
2023-08-20T13:00:31.351Z,101209.69
2023-08-20T13:02:58.578Z,101205.34
2023-08-20T13:05:26.465Z,101211.28
2023-08-20T13:07:54.501Z,101204.53
2023-08-20T13:10:22.109Z,101200.16
2023-08-20T13:12:57.637Z,101196.00
2023-08-20T13:15:26.637Z,101199.38
2023-08-20T13:17:57.113Z,101199.53
2023-08-20T13:20:23.838Z,101198.25
2023-08-20T13:22:56.391Z,101191.16
2023-08-20T13:25:23.193Z,101192.47
2023-08-20T13:27:50.091Z,101188.75
2023-08-20T13:30:17.382Z,101193.28
2023-08-20T13:32:44.164Z,101191.19
2023-08-20T13:35:10.879Z,101182.00
2023-08-20T13:37:37.598Z,101183.59
2023-08-20T13:40:06.845Z,101186.19
2023-08-20T13:42:33.879Z,101180.88
2023-08-20T13:45:00.971Z,101182.47
2023-08-20T13:47:30.664Z,101183.75
2023-08-20T13:49:58.061Z,101172.50
2023-08-20T13:52:24.829Z,101169.69
2023-08-20T13:54:51.806Z,101173.31
2023-08-20T13:57:18.596Z,101178.31
2023-08-20T13:59:47.376Z,101173.63
2023-08-20T14:02:14.118Z,101175.56
2023-08-20T14:04:47.231Z,101176.38
2023-08-20T14:07:16.065Z,101182.47
2023-08-20T14:09:42.850Z,101181.34
2023-08-20T14:12:10.037Z,101174.13
2023-08-20T14:14:39.037Z,101185.53
2023-08-20T14:17:06.675Z,101179.44
2023-08-20T14:19:34.152Z,101173.31
2023-08-20T14:22:05.108Z,101177.50
2023-08-20T14:24:31.798Z,101174.13
2023-08-20T14:26:58.734Z,101171.72
2023-08-20T14:29:27.871Z,101172.97
2023-08-20T14:31:55.466Z,101169.28
2023-08-20T14:34:22.211Z,101161.09
2023-08-20T14:36:49.160Z,101165.75
2023-08-20T14:39:17.882Z,101167.81
2023-08-20T14:41:44.625Z,101168.63
2023-08-20T14:44:11.711Z,101161.09
2023-08-20T14:46:38.443Z,101159.47
2023-08-20T14:49:08.583Z,101161.88
2023-08-20T14:51:35.647Z,101162.38
2023-08-20T14:54:04.742Z,101159.47
2023-08-20T14:56:31.519Z,101154.16
2023-08-20T14:59:00.776Z,101155.59
2023-08-20T15:01:30.649Z,101151.25
2023-08-20T15:03:58.468Z,101155.44
2023-08-20T15:06:27.620Z,101151.09
2023-08-20T15:09:05.364Z,101162.84
2023-08-20T15:11:33.125Z,101151.56
2023-08-20T15:13:59.854Z,101157.38
2023-08-20T15:16:26.592Z,101156.25
2023-08-20T15:19:02.890Z,101162.69
2023-08-20T15:21:36.881Z,101160.59
2023-08-20T15:24:20.969Z,101161.41
2023-08-20T15:26:47.820Z,101165.13
2023-08-20T15:29:17.610Z,101152.06
2023-08-20T15:31:47.499Z,101165.75
2023-08-20T15:34:15.181Z,101162.38
2023-08-20T15:36:52.815Z,101160.28
2023-08-20T15:39:23.257Z,101170.72
2023-08-20T15:41:55.475Z,101167.69
2023-08-20T15:44:26.012Z,101167.19
2023-08-20T15:46:55.917Z,101170.91
2023-08-20T15:49:22.714Z,101162.19
2023-08-20T15:51:49.459Z,101159.78
2023-08-20T15:54:16.254Z,101162.69
2023-08-20T15:56:42.996Z,101169.75
2023-08-20T15:59:15.453Z,101164.59
2023-08-20T16:01:43.140Z,101151.88
2023-08-20T16:04:09.882Z,101174.38
2023-08-20T16:06:36.599Z,101157.06
2023-08-20T16:09:03.844Z,101162.19
2023-08-20T16:11:32.969Z,101172.75
2023-08-20T16:13:59.854Z,101164.59
2023-08-20T16:16:26.728Z,101164.41
2023-08-20T16:18:53.567Z,101156.84
2023-08-20T16:21:20.345Z,101161.50
2023-08-20T16:23:49.925Z,101164.88
2023-08-20T16:26:16.732Z,101174.03
2023-08-20T16:28:43.509Z,101159.91
2023-08-20T16:31:10.371Z,101171.59
2023-08-20T16:33:46.216Z,101163.84
2023-08-20T16:36:13.773Z,101162.44
2023-08-20T16:38:40.487Z,101160.66
2023-08-20T16:41:07.259Z,101167.91
2023-08-20T16:43:33.997Z,101157.75
2023-08-20T16:46:02.421Z,101163.38
2023-08-20T16:48:34.459Z,101164.81
2023-08-20T16:51:04.438Z,101161.16
2023-08-20T16:53:31.171Z,101169.50
2023-08-20T16:55:57.894Z,101161.63
2023-08-20T16:58:25.267Z,101168.69
2023-08-20T17:00:52.013Z,101165.91
2023-08-20T17:03:18.855Z,101172.84
2023-08-20T17:05:45.671Z,101175.25
2023-08-20T17:08:12.462Z,101178.63
2023-08-20T17:10:39.285Z,101181.84
2023-08-20T17:13:06.549Z,101177.50
2023-08-20T17:15:33.959Z,101174.00
2023-08-20T17:18:01.091Z,101184.38
2023-08-20T17:20:27.862Z,101173.75
2023-08-20T17:22:54.651Z,101179.78
2023-08-20T17:25:24.803Z,101183.06
2023-08-20T17:27:51.517Z,101187.06
2023-08-20T17:30:18.254Z,101182.25
2023-08-20T17:32:51.723Z,101186.81
2023-08-20T17:35:19.110Z,101187.31
2023-08-20T17:37:45.828Z,101181.28
2023-08-20T17:40:21.728Z,101188.78
2023-08-20T17:42:49.396Z,101186.88
2023-08-20T17:47:56.750Z,101187.41
2023-08-20T17:50:23.518Z,101190.47
2023-08-20T17:52:50.346Z,101190.47
2023-08-20T17:55:17.217Z,101191.53
2023-08-20T17:57:43.892Z,101189.16
2023-08-20T18:00:11.111Z,101198.81
2023-08-20T18:02:38.196Z,101205.38
2023-08-20T18:05:07.734Z,101200.22
2023-08-20T18:07:36.020Z,101209.31
2023-08-20T18:10:03.421Z,101210.75
2023-08-20T18:12:30.301Z,101213.97
2023-08-20T18:14:57.065Z,101206.53
2023-08-20T18:17:24.009Z,101214.03
2023-08-20T18:19:51.635Z,101213.97
2023-08-20T18:22:18.442Z,101210.13
2023-08-20T18:24:47.975Z,101216.03
2023-08-20T18:27:14.722Z,101211.06
2023-08-20T18:29:43.405Z,101220.81
2023-08-20T18:32:10.138Z,101213.59
2023-08-20T18:34:42.816Z,101220.88
2023-08-20T18:37:18.730Z,101228.38
2023-08-20T18:39:46.096Z,101232.47
2023-08-20T18:42:12.897Z,101226.50
2023-08-20T18:44:39.893Z,101234.69
2023-08-20T18:47:11.018Z,101235.50
2023-08-20T18:49:37.915Z,101240.25
2023-08-20T18:52:05.364Z,101245.22
2023-08-20T18:54:34.334Z,101252.28
2023-08-20T18:57:01.066Z,101249.84
2023-08-20T18:59:30.162Z,101255.31
2023-08-20T19:01:57.972Z,101259.69
2023-08-20T19:04:24.814Z,101261.50
2023-08-20T19:06:52.353Z,101270.06
2023-08-20T19:09:19.164Z,101274.22
2023-08-20T19:11:48.230Z,101282.72
2023-08-20T19:14:16.377Z,101285.84
2023-08-20T19:16:43.223Z,101291.91
2023-08-20T19:19:14.579Z,101293.31
2023-08-20T19:21:41.564Z,101290.91
2023-08-20T19:24:08.531Z,101290.28
2023-08-20T19:26:35.664Z,101293.13
2023-08-20T19:29:05.537Z,101296.16
2023-08-20T19:31:33.143Z,101301.50
2023-08-20T19:34:02.605Z,101300.69
2023-08-20T19:36:29.400Z,101305.84
2023-08-20T19:38:56.158Z,101294.16
2023-08-20T19:41:25.877Z,101305.88
2023-08-20T19:43:53.852Z,101315.84
2023-08-20T19:46:25.491Z,101319.28
2023-08-20T19:48:53.543Z,101326.16
2023-08-20T19:51:20.278Z,101332.50
2023-08-20T19:53:49.933Z,101321.72
2023-08-20T19:56:16.741Z,101328.69
2023-08-20T19:58:44.145Z,101328.75
2023-08-20T20:01:10.992Z,101329.94
2023-08-20T20:03:37.890Z,101329.75
2023-08-20T20:06:04.602Z,101325.19
2023-08-20T20:08:31.424Z,101323.94
2023-08-20T20:10:58.227Z,101323.47
2023-08-20T20:13:25.055Z,101327.06
2023-08-20T20:15:53.532Z,101331.81
2023-08-20T20:18:25.588Z,101326.94
2023-08-20T20:20:52.748Z,101334.81
2023-08-20T20:23:25.474Z,101338.09
2023-08-20T20:25:52.304Z,101334.84
2023-08-20T20:28:23.749Z,101337.88
2023-08-20T20:30:55.202Z,101336.25
2023-08-20T20:33:21.999Z,101338.97
2023-08-20T20:35:55.356Z,101340.09
2023-08-20T20:38:26.356Z,101336.31
2023-08-20T20:40:53.101Z,101337.47
2023-08-20T20:43:20.160Z,101340.75
2023-08-20T20:45:50.646Z,101345.16
2023-08-20T20:48:22.742Z,101346.28
2023-08-20T20:50:49.970Z,101348.50
2023-08-20T20:53:18.148Z,101351.00
2023-08-20T20:55:48.220Z,101345.84
2023-08-20T20:58:15.174Z,101350.25
2023-08-20T21:00:43.987Z,101350.03
2023-08-20T21:03:13.771Z,101352.75
2023-08-20T21:05:43.598Z,101350.34
2023-08-20T21:08:11.516Z,101357.19
2023-08-20T21:10:43.743Z,101354.03
2023-08-20T21:13:10.600Z,101349.44
2023-08-20T21:15:37.623Z,101349.25
2023-08-20T21:18:04.757Z,101357.16
2023-08-20T21:20:39.719Z,101355.50
2023-08-20T21:23:07.456Z,101358.25
2023-08-20T21:25:35.646Z,101363.19
2023-08-20T21:28:04.592Z,101356.94
2023-08-20T21:30:31.406Z,101354.88
2023-08-20T21:32:58.282Z,101355.16
2023-08-20T21:35:25.131Z,101351.34
2023-08-20T21:37:51.920Z,101352.72
2023-08-20T21:40:18.966Z,101347.00
2023-08-20T21:42:45.697Z,101349.47
2023-08-20T21:45:12.768Z,101350.06
2023-08-20T21:47:40.828Z,101354.47
2023-08-20T21:50:07.981Z,101358.63
2023-08-20T21:52:34.963Z,101359.97
2023-08-20T21:55:01.836Z,101360.06
2023-08-20T21:57:28.701Z,101363.13
2023-08-20T21:59:56.438Z,101366.34
2023-08-20T22:02:23.266Z,101372.59
2023-08-20T22:04:50.119Z,101374.22
2023-08-20T22:07:19.204Z,101376.41
2023-08-20T22:09:46.012Z,101378.03
2023-08-20T22:12:15.144Z,101367.44
2023-08-20T22:14:41.965Z,101367.75
2023-08-20T22:17:08.796Z,101366.41
2023-08-20T22:19:43.616Z,101367.50
2023-08-20T22:22:14.304Z,101365.38
2023-08-20T22:24:41.115Z,101364.06
2023-08-20T22:27:10.358Z,101370.06
2023-08-20T22:29:37.481Z,101367.63
2023-08-20T22:32:04.461Z,101374.16
2023-08-20T22:34:31.185Z,101372.56
2023-08-20T22:37:00.807Z,101370.94
2023-08-20T22:39:27.567Z,101377.78
2023-08-20T22:41:57.654Z,101374.72
2023-08-20T22:44:24.374Z,101375.00
2023-08-20T22:46:51.139Z,101373.97
2023-08-20T22:49:17.899Z,101372.34
2023-08-20T22:51:52.090Z,101378.34
2023-08-20T22:54:18.948Z,101379.22
2023-08-20T22:56:45.733Z,101381.94
2023-08-20T22:59:13.429Z,101380.59
2023-08-20T23:01:45.574Z,101383.06
2023-08-20T23:04:13.657Z,101378.75
2023-08-20T23:06:41.479Z,101376.13
2023-08-20T23:09:08.812Z,101381.09
2023-08-20T23:11:38.970Z,101382.13
2023-08-20T23:14:06.353Z,101377.50
2023-08-20T23:16:33.093Z,101384.50
2023-08-20T23:19:00.088Z,101370.97
2023-08-20T23:21:37.736Z,101366.91
2023-08-20T23:24:06.666Z,101370.16
2023-08-20T23:26:36.265Z,101372.06
2023-08-20T23:29:06.018Z,101374.78
2023-08-20T23:31:33.505Z,101363.94
2023-08-20T23:34:00.208Z,101376.97
2023-08-20T23:36:27.319Z,101366.69
2023-08-20T23:38:54.070Z,101370.50
2023-08-20T23:41:23.335Z,101370.25
2023-08-20T23:43:50.061Z,101369.97
2023-08-20T23:46:16.874Z,101371.13
2023-08-20T23:48:43.607Z,101369.78
2023-08-20T23:51:12.904Z,101368.75
2023-08-20T23:53:39.816Z,101363.31
2023-08-20T23:56:06.561Z,101372.00
2023-08-20T23:58:35.855Z,101371.47
